Time;durP1;ratioP1;P1;durP2;ratioP2;P2;SDS_P1;SDS_P2;PMS_P1;PMS_P2;Temp;Humidity;BMP_temperature;BMP_pressure;BME280_temperature;BME280_humidity;BME280_pressure;Samples;Min_cycle;Max_cycle;Signal;HPM_P1;HPM_P2
2021/08/03 00:01:00;;;;;;;2.28;0.80;;;;;;;;;;5074165;28;20016;-60
2021/08/03 00:03:34;;;;;;;1.70;0.90;;;;;;;;;;5055495;28;20074;-60
2021/08/03 00:06:01;;;;;;;1.52;1.40;;;;;;;;;;5073601;28;20136;-61
2021/08/03 00:08:32;;;;;;;3.08;1.00;;;;;;;;;;5073985;28;20024;-59
2021/08/03 00:11:00;;;;;;;4.07;1.10;;;;;;;;;;5073955;28;20047;-59
2021/08/03 00:13:27;;;;;;;1.98;0.90;;;;;;;;;;5073563;28;20148;-60
2021/08/03 00:15:56;;;;;;;3.85;1.40;;;;;;;;;;5072964;28;20048;-60
2021/08/03 00:18:21;;;;;;;3.28;1.60;;;;;;;;;;5073612;28;20054;-61
2021/08/03 00:20:46;;;;;;;2.28;1.00;;;;;;;;;;5073507;28;20036;-60
2021/08/03 00:23:11;;;;;;;3.72;1.05;;;;;;;;;;5073581;28;20469;-60
2021/08/03 00:25:37;;;;;;;3.92;1.25;;;;;;;;;;5073545;28;20470;-60
2021/08/03 00:28:03;;;;;;;2.95;1.08;;;;;;;;;;5073257;28;20559;-60
2021/08/03 00:30:28;;;;;;;2.15;1.40;;;;;;;;;;5073640;28;20258;-60
2021/08/03 00:32:54;;;;;;;4.05;2.22;;;;;;;;;;5073456;28;20013;-60
2021/08/03 00:35:19;;;;;;;4.75;1.65;;;;;;;;;;5072867;28;20506;-59
2021/08/03 00:37:45;;;;;;;2.38;1.80;;;;;;;;;;5073328;28;20383;-60
2021/08/03 00:40:12;;;;;;;2.88;1.33;;;;;;;;;;5073079;28;20077;-60
2021/08/03 00:42:37;;;;;;;2.92;1.30;;;;;;;;;;5072884;28;20025;-60
2021/08/03 00:45:03;;;;;;;4.00;1.27;;;;;;;;;;5073176;28;20027;-60
2021/08/03 00:47:28;;;;;;;2.30;1.45;;;;;;;;;;5073194;28;20029;-60
2021/08/03 00:49:53;;;;;;;1.63;1.38;;;;;;;;;;5073215;28;20028;-60
2021/08/03 00:52:18;;;;;;;1.85;1.15;;;;;;;;;;5073172;28;20029;-59
2021/08/03 00:54:44;;;;;;;2.08;1.10;;;;;;;;;;5073558;28;20019;-60
2021/08/03 00:57:10;;;;;;;1.58;1.42;;;;;;;;;;5072674;28;20489;-59
2021/08/03 00:59:36;;;;;;;1.65;1.35;;;;;;;;;;5057752;28;20020;-59
2021/08/03 01:02:04;;;;;;;2.08;1.10;;;;;;;;;;5052861;28;20025;-60
2021/08/03 01:04:29;;;;;;;1.90;1.05;;;;;;;;;;5070690;28;20029;-59
2021/08/03 01:07:08;;;;;;;1.17;1.08;;;;;;;;;;5072833;28;20397;-60
2021/08/03 01:09:59;;;;;;;3.38;1.25;;;;;;;;;;5054416;28;20462;-60
2021/08/03 01:12:37;;;;;;;2.95;1.40;;;;;;;;;;5061616;28;20082;-60
2021/08/03 01:15:02;;;;;;;2.03;1.27;;;;;;;;;;5072836;28;20016;-59
2021/08/03 01:17:40;;;;;;;2.15;1.27;;;;;;;;;;5072353;28;20016;-60
2021/08/03 01:20:12;;;;;;;2.03;1.23;;;;;;;;;;5072344;28;20028;-60
2021/08/03 01:22:41;;;;;;;2.67;1.45;;;;;;;;;;5072240;28;20032;-59
2021/08/03 01:25:17;;;;;;;1.52;1.42;;;;;;;;;;5072291;28;20028;-59
2021/08/03 01:27:54;;;;;;;2.17;1.75;;;;;;;;;;5071106;28;20017;-59
2021/08/03 01:30:20;;;;;;;1.40;1.30;;;;;;;;;;5072468;28;20035;-58
2021/08/03 01:32:45;;;;;;;1.60;1.13;;;;;;;;;;5071737;28;20017;-60
2021/08/03 01:35:11;;;;;;;2.33;1.80;;;;;;;;;;5072214;28;20096;-59
2021/08/03 01:37:36;;;;;;;2.88;1.60;;;;;;;;;;5072290;28;20063;-59
2021/08/03 01:40:04;;;;;;;1.88;1.42;;;;;;;;;;5071940;28;20060;-59
2021/08/03 01:42:30;;;;;;;3.47;1.83;;;;;;;;;;5071726;28;20023;-59
2021/08/03 01:44:57;;;;;;;1.67;1.40;;;;;;;;;;5072248;28;20024;-59
2021/08/03 01:47:23;;;;;;;1.70;1.60;;;;;;;;;;5053903;28;20497;-59
2021/08/03 01:49:50;;;;;;;2.22;1.20;;;;;;;;;;5071953;28;20611;-59
2021/08/03 01:52:16;;;;;;;1.58;1.48;;;;;;;;;;5072050;28;20012;-59
2021/08/03 01:54:43;;;;;;;2.03;1.52;;;;;;;;;;5072141;28;20381;-60
2021/08/03 01:57:09;;;;;;;2.45;1.67;;;;;;;;;;5052853;28;20028;-59
2021/08/03 01:59:35;;;;;;;1.98;1.60;;;;;;;;;;5071954;28;20096;-59
2021/08/03 02:02:01;;;;;;;2.95;1.70;;;;;;;;;;5071845;28;20039;-59
2021/08/03 02:04:27;;;;;;;1.70;1.60;;;;;;;;;;5071660;28;20079;-59
2021/08/03 02:06:53;;;;;;;2.17;1.73;;;;;;;;;;5071694;28;20498;-59
2021/08/03 02:09:20;;;;;;;3.08;1.40;;;;;;;;;;5071911;28;20078;-60
2021/08/03 02:11:46;;;;;;;2.97;1.50;;;;;;;;;;5071283;28;20066;-60
2021/08/03 02:14:11;;;;;;;2.47;1.35;;;;;;;;;;5071832;28;20387;-60
2021/08/03 02:16:37;;;;;;;1.90;1.80;;;;;;;;;;5071787;28;20599;-59
2021/08/03 02:19:03;;;;;;;1.85;1.75;;;;;;;;;;5053583;28;20027;-59
2021/08/03 02:21:28;;;;;;;1.63;1.52;;;;;;;;;;5071562;28;20027;-59
2021/08/03 02:23:53;;;;;;;3.67;1.90;;;;;;;;;;5071993;28;20051;-59
2021/08/03 02:26:19;;;;;;;1.52;1.42;;;;;;;;;;5071035;28;20466;-57
2021/08/03 02:28:44;;;;;;;2.50;2.00;;;;;;;;;;5071143;28;20375;-59
2021/08/03 02:31:14;;;;;;;3.60;2.28;;;;;;;;;;5071546;28;20024;-59
2021/08/03 02:33:48;;;;;;;1.90;1.75;;;;;;;;;;5053317;28;20024;-59
2021/08/03 02:36:19;;;;;;;3.35;1.90;;;;;;;;;;5071673;28;20031;-59
2021/08/03 02:38:45;;;;;;;2.28;2.05;;;;;;;;;;5073727;28;20017;-59
2021/08/03 02:41:12;;;;;;;2.45;1.98;;;;;;;;;;5087569;28;20020;-59
2021/08/03 02:43:37;;;;;;;2.00;1.90;;;;;;;;;;5093972;28;20024;-60
2021/08/03 02:46:04;;;;;;;4.88;2.28;;;;;;;;;;5055572;28;20017;-59
2021/08/03 02:48:30;;;;;;;3.22;2.13;;;;;;;;;;5059297;28;20070;-59
2021/08/03 02:50:55;;;;;;;2.50;2.30;;;;;;;;;;5075434;28;20024;-59
2021/08/03 02:53:32;;;;;;;2.83;2.35;;;;;;;;;;5075353;28;20013;-59
2021/08/03 02:55:59;;;;;;;2.13;1.83;;;;;;;;;;5075115;28;20021;-60
2021/08/03 02:58:30;;;;;;;1.95;1.80;;;;;;;;;;5074790;28;20079;-59
2021/08/03 03:00:56;;;;;;;3.40;2.20;;;;;;;;;;5075296;28;20023;-59
2021/08/03 03:03:22;;;;;;;4.20;1.60;;;;;;;;;;5056802;28;20024;-59
2021/08/03 03:05:50;;;;;;;2.35;1.42;;;;;;;;;;5075045;28;20516;-59
2021/08/03 03:08:16;;;;;;;2.25;2.05;;;;;;;;;;5074830;28;20409;-64
2021/08/03 03:10:44;;;;;;;2.55;2.03;;;;;;;;;;5075270;28;20017;-59
2021/08/03 03:13:18;;;;;;;2.25;2.08;;;;;;;;;;5074774;28;20423;-60
2021/08/03 03:15:44;;;;;;;4.85;2.67;;;;;;;;;;5075055;28;20036;-60
2021/08/03 03:18:10;;;;;;;4.22;2.80;;;;;;;;;;5074615;28;20013;-60
2021/08/03 03:20:36;;;;;;;3.67;2.53;;;;;;;;;;5075049;28;20032;-60
2021/08/03 03:23:02;;;;;;;4.35;2.88;;;;;;;;;;5074465;28;20048;-60
2021/08/03 03:25:28;;;;;;;3.05;2.85;;;;;;;;;;5074801;28;20051;-60
2021/08/03 03:27:56;;;;;;;2.97;2.20;;;;;;;;;;5074118;28;20120;-60
2021/08/03 03:30:21;;;;;;;3.83;2.50;;;;;;;;;;5074343;28;20052;-60
2021/08/03 03:32:47;;;;;;;2.70;2.50;;;;;;;;;;5056660;28;20044;-60
2021/08/03 03:35:16;;;;;;;3.78;2.47;;;;;;;;;;5074679;28;20035;-60
2021/08/03 03:37:42;;;;;;;3.58;2.60;;;;;;;;;;5074138;28;20542;-60
2021/08/03 03:40:08;;;;;;;2.97;2.67;;;;;;;;;;5074488;28;20029;-59
2021/08/03 03:42:34;;;;;;;4.35;2.60;;;;;;;;;;5074138;28;20058;-60
2021/08/03 03:44:59;;;;;;;3.22;2.75;;;;;;;;;;5074256;28;20121;-59
2021/08/03 03:47:32;;;;;;;4.53;3.10;;;;;;;;;;5074378;28;20091;-60
2021/08/03 03:49:59;;;;;;;3.08;2.83;;;;;;;;;;5073275;28;20021;-60
2021/08/03 03:52:26;;;;;;;4.05;3.00;;;;;;;;;;5074209;28;20424;-60
2021/08/03 03:54:52;;;;;;;3.88;3.05;;;;;;;;;;5074179;28;20028;-59
2021/08/03 03:57:19;;;;;;;5.78;2.55;;;;;;;;;;5073915;28;20020;-60
2021/08/03 03:59:45;;;;;;;4.55;2.55;;;;;;;;;;5073979;28;20024;-60
2021/08/03 04:02:12;;;;;;;3.75;2.33;;;;;;;;;;5073820;28;20051;-59
2021/08/03 04:04:38;;;;;;;4.03;2.58;;;;;;;;;;5074037;28;20100;-60
2021/08/03 04:07:04;;;;;;;3.28;2.38;;;;;;;;;;5073845;28;20123;-60
2021/08/03 04:09:29;;;;;;;5.32;2.30;;;;;;;;;;5073520;28;20108;-58
2021/08/03 04:11:54;;;;;;;3.13;2.35;;;;;;;;;;5073128;28;20024;-61
2021/08/03 04:14:22;;;;;;;2.40;2.20;;;;;;;;;;5073858;28;20028;-58
2021/08/03 04:16:48;;;;;;;2.95;2.38;;;;;;;;;;5073935;28;20550;-61
2021/08/03 04:19:13;;;;;;;2.95;2.70;;;;;;;;;;5074034;28;20103;-61
2021/08/03 04:21:38;;;;;;;4.28;2.70;;;;;;;;;;5055690;28;20032;-60
2021/08/03 04:24:04;;;;;;;4.57;2.30;;;;;;;;;;5073765;28;20089;-61
2021/08/03 04:26:30;;;;;;;2.50;2.15;;;;;;;;;;5072918;28;20519;-59
2021/08/03 04:28:55;;;;;;;2.15;2.00;;;;;;;;;;5073157;28;20004;-61
2021/08/03 04:31:20;;;;;;;2.92;2.33;;;;;;;;;;5073087;28;20020;-60
2021/08/03 04:33:45;;;;;;;3.28;2.65;;;;;;;;;;5073265;28;20398;-60
2021/08/03 04:36:11;;;;;;;3.50;2.55;;;;;;;;;;5073477;28;20073;-60
2021/08/03 04:38:36;;;;;;;5.18;2.75;;;;;;;;;;5072952;28;20016;-59
2021/08/03 04:41:01;;;;;;;4.05;2.83;;;;;;;;;;5073348;28;20024;-60
2021/08/03 04:43:27;;;;;;;3.58;2.25;;;;;;;;;;5072863;28;20481;-59
2021/08/03 04:45:52;;;;;;;3.80;3.05;;;;;;;;;;5073323;28;20016;-59
2021/08/03 04:48:17;;;;;;;3.38;2.70;;;;;;;;;;5073271;28;20462;-60
2021/08/03 04:50:42;;;;;;;5.22;4.07;;;;;;;;;;5072626;28;20054;-60
2021/08/03 04:53:08;;;;;;;5.68;4.38;;;;;;;;;;5072836;28;20143;-60
2021/08/03 04:55:33;;;;;;;4.70;3.60;;;;;;;;;;5073125;28;20028;-60
2021/08/03 04:57:58;;;;;;;4.97;3.13;;;;;;;;;;5072625;28;20450;-60
2021/08/03 05:00:23;;;;;;;5.10;4.60;;;;;;;;;;5073076;28;20028;-61
2021/08/03 05:02:49;;;;;;;15.82;14.30;;;;;;;;;;5072431;28;20020;-60
2021/08/03 05:05:14;;;;;;;18.80;16.80;;;;;;;;;;5072423;28;20099;-60
2021/08/03 05:07:40;;;;;;;9.13;8.20;;;;;;;;;;5072335;28;20044;-60
2021/08/03 05:10:07;;;;;;;5.93;5.05;;;;;;;;;;5073338;28;20025;-60
2021/08/03 05:12:32;;;;;;;6.07;5.57;;;;;;;;;;5072654;28;20074;-59
2021/08/03 05:15:00;;;;;;;6.53;5.80;;;;;;;;;;5072459;28;20025;-60
2021/08/03 05:17:27;;;;;;;4.72;3.78;;;;;;;;;;5072910;28;20032;-60
2021/08/03 05:19:52;;;;;;;5.50;3.95;;;;;;;;;;5072400;28;20016;-59
2021/08/03 05:22:17;;;;;;;3.08;2.80;;;;;;;;;;5072324;28;20266;-60
2021/08/03 05:24:42;;;;;;;3.70;1.83;;;;;;;;;;5054585;28;20020;-60
2021/08/03 05:27:08;;;;;;;3.33;2.20;;;;;;;;;;5071988;28;20024;-62
2021/08/03 05:29:33;;;;;;;2.53;2.03;;;;;;;;;;5054592;28;20025;-60
2021/08/03 05:31:58;;;;;;;1.83;1.73;;;;;;;;;;5072229;28;20028;-60
2021/08/03 05:34:23;;;;;;;2.60;1.75;;;;;;;;;;5072555;28;20495;-60
2021/08/03 05:36:48;;;;;;;1.77;1.67;;;;;;;;;;5072108;28;20465;-60
2021/08/03 05:39:14;;;;;;;2.45;1.75;;;;;;;;;;5072344;28;20028;-60
2021/08/03 05:41:39;;;;;;;3.08;1.40;;;;;;;;;;5071349;28;20440;-59
2021/08/03 05:44:04;;;;;;;2.75;1.65;;;;;;;;;;5072267;28;20030;-60
2021/08/03 05:46:31;;;;;;;2.17;1.67;;;;;;;;;;5072101;28;20048;-60
2021/08/03 05:48:56;;;;;;;2.53;1.85;;;;;;;;;;5072295;28;20493;-60
2021/08/03 05:51:21;;;;;;;2.00;1.90;;;;;;;;;;5058776;28;20021;-59
2021/08/03 05:53:46;;;;;;;2.35;1.50;;;;;;;;;;5052093;28;20461;-60
2021/08/03 05:56:11;;;;;;;1.88;1.48;;;;;;;;;;5065527;28;20028;-60
2021/08/03 05:58:37;;;;;;;2.72;1.50;;;;;;;;;;5092013;28;20024;-60
2021/08/03 06:01:02;;;;;;;1.75;1.42;;;;;;;;;;5092102;28;20064;-60
2021/08/03 06:03:27;;;;;;;1.10;1.00;;;;;;;;;;5080062;28;20025;-60
2021/08/03 06:05:52;;;;;;;2.83;1.55;;;;;;;;;;5071720;28;20044;-60
2021/08/03 06:08:22;;;;;;;1.95;1.10;;;;;;;;;;5071627;28;20505;-60
2021/08/03 06:10:50;;;;;;;2.72;1.42;;;;;;;;;;5072070;28;20021;-60
2021/08/03 06:13:15;;;;;;;2.22;0.95;;;;;;;;;;5070943;28;20023;-60
2021/08/03 06:15:42;;;;;;;1.77;0.98;;;;;;;;;;5070776;28;20029;-60
2021/08/03 06:18:19;;;;;;;1.90;1.10;;;;;;;;;;5072139;28;20074;-59
2021/08/03 06:20:44;;;;;;;1.80;1.20;;;;;;;;;;5071771;28;20467;-59
2021/08/03 06:23:11;;;;;;;1.90;0.93;;;;;;;;;;5071219;28;20024;-60
2021/08/03 06:25:37;;;;;;;2.35;1.02;;;;;;;;;;5071608;28;20017;-59
2021/08/03 06:28:03;;;;;;;4.50;1.38;;;;;;;;;;5070534;28;20409;-59
2021/08/03 06:30:29;;;;;;;3.58;1.63;;;;;;;;;;5071690;28;20016;-60
2021/08/03 06:32:54;;;;;;;2.75;1.40;;;;;;;;;;5071650;28;20020;-60
2021/08/03 06:35:20;;;;;;;1.75;1.48;;;;;;;;;;5071413;28;20096;-59
2021/08/03 06:37:45;;;;;;;1.40;1.30;;;;;;;;;;5071513;28;20074;-59
2021/08/03 06:40:11;;;;;;;2.47;1.40;;;;;;;;;;5071474;28;20444;-59
2021/08/03 06:42:36;;;;;;;1.92;1.35;;;;;;;;;;5071176;28;20024;-59
2021/08/03 06:45:03;;;;;;;1.63;1.37;;;;;;;;;;5071385;28;20466;-59
2021/08/03 06:47:34;;;;;;;1.55;1.42;;;;;;;;;;5071158;28;20754;-59
2021/08/03 06:50:02;;;;;;;2.13;1.25;;;;;;;;;;5071558;28;20086;-59
2021/08/03 06:52:27;;;;;;;1.73;1.60;;;;;;;;;;5070877;28;20507;-59
2021/08/03 06:54:57;;;;;;;2.30;1.58;;;;;;;;;;5071400;28;20104;-59
2021/08/03 06:57:22;;;;;;;1.50;1.40;;;;;;;;;;5070979;28;20017;-59
2021/08/03 06:59:49;;;;;;;1.67;1.55;;;;;;;;;;5071647;28;20482;-59
2021/08/03 07:02:21;;;;;;;1.40;1.30;;;;;;;;;;5071243;28;20028;-59
2021/08/03 07:04:58;;;;;;;1.90;1.70;;;;;;;;;;5070947;28;20027;-60
2021/08/03 07:07:24;;;;;;;1.77;1.42;;;;;;;;;;5066591;28;20045;-60
2021/08/03 07:09:49;;;;;;;2.53;1.70;;;;;;;;;;5056336;28;20114;-60
2021/08/03 07:12:15;;;;;;;1.60;1.50;;;;;;;;;;5070893;28;20040;-60
2021/08/03 07:14:41;;;;;;;1.60;1.48;;;;;;;;;;5071360;28;20016;-60
2021/08/03 07:17:07;;;;;;;2.13;1.92;;;;;;;;;;5071209;28;20024;-61
2021/08/03 07:19:32;;;;;;;1.85;1.70;;;;;;;;;;5071563;28;20031;-62
2021/08/03 07:21:58;;;;;;;2.28;1.52;;;;;;;;;;5050813;28;20501;-60
2021/08/03 07:24:24;;;;;;;1.80;1.67;;;;;;;;;;5065064;28;20024;-61
2021/08/03 07:26:50;;;;;;;3.25;1.92;;;;;;;;;;5074207;28;20016;-60
2021/08/03 07:29:15;;;;;;;2.47;1.92;;;;;;;;;;5074845;28;20510;-60
2021/08/03 07:31:43;;;;;;;2.47;1.83;;;;;;;;;;5074469;28;20020;-60
2021/08/03 07:34:09;;;;;;;3.88;1.60;;;;;;;;;;5074313;28;20584;-61
2021/08/03 07:36:36;;;;;;;2.60;1.83;;;;;;;;;;5074345;28;20036;-61
2021/08/03 07:39:04;;;;;;;2.17;2.08;;;;;;;;;;5074225;28;20048;-59
2021/08/03 07:41:30;;;;;;;1.25;1.15;;;;;;;;;;5074644;28;20032;-59
2021/08/03 07:43:55;;;;;;;2.08;1.77;;;;;;;;;;5074063;28;20466;-60
2021/08/03 07:46:20;;;;;;;1.83;1.70;;;;;;;;;;5074225;28;20021;-59
2021/08/03 07:48:50;;;;;;;2.15;1.13;;;;;;;;;;5074430;28;20539;-60
2021/08/03 07:51:19;;;;;;;2.92;1.70;;;;;;;;;;5074171;28;20031;-60
2021/08/03 07:53:46;;;;;;;2.20;1.58;;;;;;;;;;5073883;28;20540;-59
2021/08/03 07:56:11;;;;;;;1.58;1.48;;;;;;;;;;5074012;28;20099;-60
2021/08/03 07:58:36;;;;;;;1.45;1.30;;;;;;;;;;5073645;28;20104;-60
2021/08/03 08:01:02;;;;;;;1.45;1.35;;;;;;;;;;5074071;28;20086;-60
2021/08/03 08:03:28;;;;;;;1.60;1.45;;;;;;;;;;5073844;28;20264;-60
2021/08/03 08:05:53;;;;;;;1.70;1.60;;;;;;;;;;5073907;28;20060;-60
2021/08/03 08:08:18;;;;;;;1.45;1.35;;;;;;;;;;5073518;28;20046;-61
2021/08/03 08:10:43;;;;;;;2.43;1.20;;;;;;;;;;5073756;28;20028;-61
2021/08/03 08:13:08;;;;;;;2.13;1.05;;;;;;;;;;5073670;28;20270;-61
2021/08/03 08:15:34;;;;;;;1.88;1.08;;;;;;;;;;5074034;28;20020;-61
2021/08/03 08:17:59;;;;;;;1.30;0.80;;;;;;;;;;5073871;28;20028;-61
2021/08/03 08:20:24;;;;;;;0.93;0.80;;;;;;;;;;5073362;28;20024;-60
2021/08/03 08:22:49;;;;;;;2.40;0.93;;;;;;;;;;5073483;28;20031;-60
2021/08/03 08:25:14;;;;;;;2.58;1.17;;;;;;;;;;5073690;28;20270;-60
2021/08/03 08:27:40;;;;;;;1.15;1.02;;;;;;;;;;5073159;28;20025;-60
2021/08/03 08:30:06;;;;;;;0.98;0.90;;;;;;;;;;5055770;28;20016;-61
2021/08/03 08:32:31;;;;;;;1.33;1.23;;;;;;;;;;5073083;28;20433;-60
2021/08/03 08:34:57;;;;;;;3.17;1.40;;;;;;;;;;5055563;28;20021;-60
2021/08/03 08:37:22;;;;;;;1.00;0.87;;;;;;;;;;5072595;28;20017;-58
2021/08/03 08:39:47;;;;;;;1.97;1.10;;;;;;;;;;5055188;28;20275;-61
2021/08/03 08:42:15;;;;;;;1.13;0.90;;;;;;;;;;5072950;28;20254;-60
2021/08/03 08:44:40;;;;;;;1.15;0.77;;;;;;;;;;5072728;28;20032;-60
2021/08/03 08:47:06;;;;;;;1.50;0.50;;;;;;;;;;5073111;28;20016;-60
2021/08/03 08:49:33;;;;;;;1.00;0.50;;;;;;;;;;5073391;28;20371;-61
2021/08/03 08:51:59;;;;;;;1.27;0.70;;;;;;;;;;5070897;28;20067;-61
2021/08/03 08:54:24;;;;;;;0.52;0.52;;;;;;;;;;5073282;28;20024;-60
2021/08/03 08:56:49;;;;;;;1.33;0.50;;;;;;;;;;5072558;28;20328;-61
2021/08/03 08:59:14;;;;;;;1.92;0.60;;;;;;;;;;5072757;28;20748;-61
2021/08/03 09:01:39;;;;;;;1.80;0.50;;;;;;;;;;5072748;28;20024;-59
2021/08/03 09:04:06;;;;;;;1.13;0.50;;;;;;;;;;5072302;28;20378;-60
2021/08/03 09:06:31;;;;;;;0.77;0.68;;;;;;;;;;5054288;28;20279;-60
2021/08/03 09:08:56;;;;;;;0.40;0.30;;;;;;;;;;5073114;28;20017;-61
2021/08/03 09:11:22;;;;;;;1.83;0.43;;;;;;;;;;5072840;28;20251;-58
2021/08/03 09:14:02;;;;;;;0.38;0.30;;;;;;;;;;5071915;28;20024;-60
2021/08/03 09:16:41;;;;;;;1.40;0.32;;;;;;;;;;5052759;28;20389;-60
2021/08/03 09:19:06;;;;;;;0.52;0.40;;;;;;;;;;5052766;28;20497;-60
2021/08/03 09:21:31;;;;;;;0.75;0.40;;;;;;;;;;5052583;28;20025;-60
2021/08/03 09:23:58;;;;;;;0.50;0.40;;;;;;;;;;5074713;28;20521;-59
2021/08/03 09:26:39;;;;;;;0.63;0.60;;;;;;;;;;5082104;28;20297;-60
2021/08/03 09:29:06;;;;;;;1.77;0.50;;;;;;;;;;5072443;28;20024;-59
2021/08/03 09:31:32;;;;;;;0.50;0.47;;;;;;;;;;5072435;28;20485;-59
2021/08/03 09:33:57;;;;;;;1.17;0.50;;;;;;;;;;5072150;28;20031;-59
2021/08/03 09:36:41;;;;;;;0.98;0.35;;;;;;;;;;5072221;28;20025;-59
2021/08/03 09:39:06;;;;;;;0.70;0.50;;;;;;;;;;5072200;28;20024;-60
2021/08/03 09:41:44;;;;;;;1.55;0.38;;;;;;;;;;5072165;28;20074;-60
2021/08/03 09:44:13;;;;;;;0.93;0.55;;;;;;;;;;5071978;28;20119;-60
2021/08/03 09:46:38;;;;;;;1.33;0.40;;;;;;;;;;5072262;28;20054;-60
2021/08/03 09:49:03;;;;;;;0.60;0.40;;;;;;;;;;5053475;28;20087;-59
2021/08/03 09:51:29;;;;;;;0.67;0.67;;;;;;;;;;5071785;28;20274;-59
2021/08/03 09:53:54;;;;;;;0.45;0.30;;;;;;;;;;5071853;28;20313;-60
2021/08/03 09:56:20;;;;;;;0.50;0.30;;;;;;;;;;5072055;28;20473;-59
2021/08/03 09:58:52;;;;;;;0.32;0.30;;;;;;;;;;5071671;28;20098;-59
2021/08/03 10:01:21;;;;;;;0.70;0.40;;;;;;;;;;5072091;28;20516;-59
2021/08/03 10:03:47;;;;;;;0.40;0.40;;;;;;;;;;5069599;28;20055;-60
2021/08/03 10:06:12;;;;;;;0.73;0.40;;;;;;;;;;5057657;28;20076;-60
2021/08/03 10:08:38;;;;;;;0.73;0.50;;;;;;;;;;5051698;28;20025;-59
2021/08/03 10:11:03;;;;;;;1.83;0.30;;;;;;;;;;5060163;28;20297;-60
2021/08/03 10:13:29;;;;;;;0.77;0.40;;;;;;;;;;5071462;28;20048;-59
2021/08/03 10:15:54;;;;;;;0.50;0.47;;;;;;;;;;5071526;28;20474;-59
2021/08/03 10:18:19;;;;;;;1.23;0.30;;;;;;;;;;5071750;28;20029;-60
2021/08/03 10:20:45;;;;;;;0.60;0.50;;;;;;;;;;5071722;28;20275;-59
2021/08/03 10:23:11;;;;;;;0.30;0.30;;;;;;;;;;5071392;28;20262;-60
2021/08/03 10:25:40;;;;;;;1.58;0.30;;;;;;;;;;5071602;28;20056;-59
2021/08/03 10:28:19;;;;;;;0.88;0.30;;;;;;;;;;5051384;28;20029;-60
2021/08/03 10:30:44;;;;;;;0.60;0.30;;;;;;;;;;5051530;28;20561;-60
2021/08/03 10:33:30;;;;;;;0.55;0.40;;;;;;;;;;5051363;28;20024;-59
2021/08/03 10:35:57;;;;;;;;;;;;;;;;;;5063524;28;20082;-60
2021/08/03 10:38:28;;;;;;;0.40;0.40;;;;;;;;;;5071334;28;19908;-59
2021/08/03 10:40:57;;;;;;;1.50;0.20;;;;;;;;;;5071519;28;20104;-59
2021/08/03 10:43:34;;;;;;;2.15;0.60;;;;;;;;;;5071127;28;20012;-60
2021/08/03 10:46:08;;;;;;;0.90;0.40;;;;;;;;;;5071512;28;20082;-60
2021/08/03 10:48:39;;;;;;;0.68;0.40;;;;;;;;;;5071824;28;20355;-61
2021/08/03 10:51:13;;;;;;;0.40;0.30;;;;;;;;;;5071104;28;20077;-60
2021/08/03 10:53:51;;;;;;;0.60;0.50;;;;;;;;;;5071449;28;20021;-61
2021/08/03 10:56:16;;;;;;;1.17;0.50;;;;;;;;;;5071389;28;20374;-61
2021/08/03 10:58:41;;;;;;;0.70;0.40;;;;;;;;;;5071014;28;20023;-59
2021/08/03 11:01:07;;;;;;;0.80;0.75;;;;;;;;;;5075353;28;20031;-60
2021/08/03 11:03:32;;;;;;;0.88;0.68;;;;;;;;;;5073392;28;20074;-61
2021/08/03 11:05:58;;;;;;;1.00;0.63;;;;;;;;;;5074331;28;20059;-60
2021/08/03 11:08:33;;;;;;;1.75;0.52;;;;;;;;;;5069573;28;20035;-60
2021/08/03 11:11:05;;;;;;;1.52;0.40;;;;;;;;;;5055306;28;20024;-61
2021/08/03 11:13:42;;;;;;;0.80;0.40;;;;;;;;;;5054741;28;20394;-61
2021/08/03 11:16:23;;;;;;;0.90;0.50;;;;;;;;;;5067319;28;20100;-60
2021/08/03 11:18:48;;;;;;;0.63;0.40;;;;;;;;;;5074583;28;20029;-60
2021/08/03 11:21:14;;;;;;;0.40;0.30;;;;;;;;;;5074556;28;20028;-59
2021/08/03 11:23:55;;;;;;;0.55;0.50;;;;;;;;;;5074527;28;20021;-60
2021/08/03 11:26:21;;;;;;;2.63;0.22;;;;;;;;;;5074391;28;20103;-59
2021/08/03 11:28:57;;;;;;;0.75;0.52;;;;;;;;;;5074137;28;20459;-59
2021/08/03 11:31:22;;;;;;;1.42;0.70;;;;;;;;;;5074714;28;20066;-58
2021/08/03 11:33:53;;;;;;;1.98;0.50;;;;;;;;;;5073974;28;20021;-59
2021/08/03 11:36:18;;;;;;;0.60;0.40;;;;;;;;;;5074531;28;20437;-59
2021/08/03 11:38:44;;;;;;;2.87;0.70;;;;;;;;;;5074363;28;20023;-59
2021/08/03 11:41:09;;;;;;;0.77;0.77;;;;;;;;;;5074447;28;20258;-60
2021/08/03 11:43:34;;;;;;;2.60;1.15;;;;;;;;;;5073758;28;20247;-59
2021/08/03 11:45:59;;;;;;;0.40;0.40;;;;;;;;;;5074169;28;20031;-60
2021/08/03 11:48:26;;;;;;;1.03;0.30;;;;;;;;;;5074394;28;20471;-60
2021/08/03 11:50:51;;;;;;;1.05;0.30;;;;;;;;;;5073829;28;20636;-60
2021/08/03 11:53:18;;;;;;;0.60;0.43;;;;;;;;;;5074247;28;20019;-60
2021/08/03 11:55:47;;;;;;;0.68;0.50;;;;;;;;;;5074341;28;20028;-60
2021/08/03 11:58:19;;;;;;;0.50;0.35;;;;;;;;;;5073912;28;20017;-61
2021/08/03 12:00:44;;;;;;;0.80;0.30;;;;;;;;;;5074126;28;20381;-59
2021/08/03 12:03:09;;;;;;;0.30;0.20;;;;;;;;;;5073906;28;20024;-60
2021/08/03 12:05:37;;;;;;;0.73;0.35;;;;;;;;;;5073328;28;20032;-59
2021/08/03 12:08:03;;;;;;;1.13;0.40;;;;;;;;;;5074053;28;20048;-59
2021/08/03 12:10:29;;;;;;;0.47;0.47;;;;;;;;;;5073635;28;20527;-60
2021/08/03 12:12:55;;;;;;;0.80;0.50;;;;;;;;;;5068943;28;20013;-60
2021/08/03 12:15:21;;;;;;;0.80;0.80;;;;;;;;;;5065230;28;20016;-60
2021/08/03 12:17:47;;;;;;;0.80;0.80;;;;;;;;;;5061528;28;20016;-60
2021/08/03 12:20:24;;;;;;;0.80;0.50;;;;;;;;;;5073839;28;20028;-60
2021/08/03 12:22:49;;;;;;;0.60;0.60;;;;;;;;;;5073852;28;20115;-61
2021/08/03 12:25:14;;;;;;;0.85;0.50;;;;;;;;;;5073932;28;20115;-60
2021/08/03 12:27:41;;;;;;;0.60;0.40;;;;;;;;;;5073212;28;20458;-59
2021/08/03 12:30:07;;;;;;;1.40;0.40;;;;;;;;;;5073916;28;20027;-60
2021/08/03 12:32:38;;;;;;;0.60;0.40;;;;;;;;;;5073045;28;20020;-60
2021/08/03 12:35:07;;;;;;;0.98;0.50;;;;;;;;;;5073789;28;20024;-60
2021/08/03 12:37:33;;;;;;;0.45;0.43;;;;;;;;;;5073258;28;20054;-60
2021/08/03 12:39:58;;;;;;;1.20;0.30;;;;;;;;;;5073606;28;20032;-60
2021/08/03 12:45:14;;;;;;;1.73;0.50;;;;;;;;;;5073682;28;20451;-60
2021/08/03 12:48:01;;;;;;;1.35;0.40;;;;;;;;;;5063222;28;20037;-60
2021/08/03 12:50:26;;;;;;;1.67;0.40;;;;;;;;;;5073345;28;20017;-60
2021/08/03 12:52:55;;;;;;;0.40;0.32;;;;;;;;;;5072912;28;20359;-60
2021/08/03 12:55:26;;;;;;;0.40;0.40;;;;;;;;;;5073064;28;20081;-60
2021/08/03 12:57:55;;;;;;;0.40;0.30;;;;;;;;;;5054512;28;20366;-60
2021/08/03 13:00:37;;;;;;;0.35;0.35;;;;;;;;;;5054625;28;20012;-60
2021/08/03 13:03:12;;;;;;;0.50;0.30;;;;;;;;;;5037997;28;20048;-60
2021/08/03 13:05:38;;;;;;;0.63;0.50;;;;;;;;;;5072538;28;20485;-60
2021/08/03 13:08:04;;;;;;;0.82;0.40;;;;;;;;;;5072929;28;20501;-60
2021/08/03 13:10:30;;;;;;;0.40;0.38;;;;;;;;;;5072702;28;20024;-60
2021/08/03 13:12:55;;;;;;;0.50;0.38;;;;;;;;;;5071633;28;20012;-60
2021/08/03 13:15:21;;;;;;;0.30;0.30;;;;;;;;;;5072541;28;20025;-60
2021/08/03 13:17:46;;;;;;;0.53;0.30;;;;;;;;;;5072623;28;20021;-60
2021/08/03 13:20:12;;;;;;;1.27;0.30;;;;;;;;;;5072645;28;20250;-60
2021/08/03 13:22:37;;;;;;;0.50;0.40;;;;;;;;;;5072158;28;20751;-60
2021/08/03 13:25:02;;;;;;;1.10;0.40;;;;;;;;;;5072351;28;20103;-60
2021/08/03 13:27:28;;;;;;;0.50;0.30;;;;;;;;;;5071968;28;20708;-60
2021/08/03 13:29:53;;;;;;;0.40;0.40;;;;;;;;;;5072456;28;20011;-60
2021/08/03 13:32:18;;;;;;;0.40;0.40;;;;;;;;;;5071772;28;20029;-60
2021/08/03 13:34:43;;;;;;;0.70;0.60;;;;;;;;;;5072105;28;20031;-60
2021/08/03 13:37:09;;;;;;;0.50;0.50;;;;;;;;;;5071852;28;20267;-61
2021/08/03 13:39:34;;;;;;;0.67;0.53;;;;;;;;;;5072658;28;20297;-60
2021/08/03 13:41:59;;;;;;;2.00;0.40;;;;;;;;;;5071977;28;20680;-60
2021/08/03 13:44:24;;;;;;;2.40;0.30;;;;;;;;;;5072117;28;20024;-61
2021/08/03 13:46:49;;;;;;;0.60;0.37;;;;;;;;;;5071889;28;20021;-57
2021/08/03 13:49:15;;;;;;;1.33;0.40;;;;;;;;;;5072020;28;20390;-58
2021/08/03 13:51:40;;;;;;;1.13;0.30;;;;;;;;;;5072078;28;20259;-59
2021/08/03 13:54:06;;;;;;;0.73;0.30;;;;;;;;;;5071997;28;20390;-59
2021/08/03 13:56:31;;;;;;;0.52;0.25;;;;;;;;;;5054014;28;20028;-58
2021/08/03 13:58:59;;;;;;;0.77;0.43;;;;;;;;;;5071706;28;20023;-59
2021/08/03 14:01:24;;;;;;;1.10;0.30;;;;;;;;;;5062278;28;20094;-58
2021/08/03 14:03:49;;;;;;;1.03;0.30;;;;;;;;;;5071047;28;20465;-59
2021/08/03 14:06:15;;;;;;;1.70;0.30;;;;;;;;;;5071291;28;20439;-59
2021/08/03 14:08:41;;;;;;;0.47;0.35;;;;;;;;;;5072007;28;20017;-59
2021/08/03 14:11:06;;;;;;;0.30;0.30;;;;;;;;;;5072017;28;20433;-59
2021/08/03 14:13:31;;;;;;;1.00;0.30;;;;;;;;;;5071169;28;20017;-58
2021/08/03 14:15:56;;;;;;;0.93;0.40;;;;;;;;;;5071984;28;20316;-59
2021/08/03 14:18:22;;;;;;;0.30;0.30;;;;;;;;;;5071732;28;20381;-59
2021/08/03 14:20:51;;;;;;;0.70;0.32;;;;;;;;;;5071748;28;20028;-59
2021/08/03 14:23:17;;;;;;;0.60;0.40;;;;;;;;;;5071585;28;20466;-60
2021/08/03 14:25:43;;;;;;;0.40;0.40;;;;;;;;;;5053362;28;20058;-59
2021/08/03 14:28:08;;;;;;;0.63;0.47;;;;;;;;;;5070964;28;20294;-59
2021/08/03 14:30:34;;;;;;;0.50;0.40;;;;;;;;;;5071897;28;20401;-59
2021/08/03 14:33:00;;;;;;;0.50;0.30;;;;;;;;;;5071464;28;20266;-58
2021/08/03 14:35:25;;;;;;;0.50;0.40;;;;;;;;;;5053035;28;20027;-59
2021/08/03 14:37:51;;;;;;;1.38;0.35;;;;;;;;;;5073385;28;20024;-60
2021/08/03 14:40:17;;;;;;;0.47;0.35;;;;;;;;;;5075705;28;20370;-60
2021/08/03 14:42:42;;;;;;;0.50;0.30;;;;;;;;;;5075180;28;20020;-60
2021/08/03 14:45:08;;;;;;;1.00;0.30;;;;;;;;;;5075762;28;20035;-60